createdAt,value
2018-12-10T00:01:44.217Z,2.00
2018-12-10T00:04:10.891Z,2.17
2018-12-10T00:06:37.513Z,1.80
2018-12-10T00:09:04.978Z,1.50
2018-12-10T00:11:31.622Z,1.60
2018-12-10T00:13:58.233Z,2.23
2018-12-10T00:16:24.916Z,1.90
2018-12-10T00:18:51.612Z,2.30
2018-12-10T00:21:18.276Z,2.73
2018-12-10T00:23:44.917Z,2.20
2018-12-10T00:26:11.552Z,2.63
2018-12-10T00:28:38.167Z,2.47
2018-12-10T00:31:04.805Z,2.20
2018-12-10T00:33:31.423Z,2.30
2018-12-10T00:35:58.049Z,2.73
2018-12-10T00:38:24.667Z,2.43
2018-12-10T00:40:51.389Z,2.50
2018-12-10T00:43:18.019Z,2.50
2018-12-10T00:45:44.670Z,2.67
2018-12-10T00:48:11.357Z,2.30
2018-12-10T00:50:38.178Z,2.50
2018-12-10T00:53:04.783Z,2.00
2018-12-10T00:55:31.408Z,3.37
2018-12-10T00:57:58.056Z,2.50
2018-12-10T01:00:24.754Z,2.37
2018-12-10T01:02:51.457Z,2.33
2018-12-10T01:05:18.192Z,3.63
2018-12-10T01:07:44.928Z,2.37
2018-12-10T01:10:11.573Z,1.50
2018-12-10T01:12:38.209Z,1.77
2018-12-10T01:15:04.886Z,1.70
2018-12-10T01:17:31.488Z,1.70
2018-12-10T01:19:58.132Z,2.00
2018-12-10T01:22:24.761Z,1.70
2018-12-10T01:24:51.397Z,2.40
2018-12-10T01:27:18.009Z,1.60
2018-12-10T01:29:44.719Z,1.80
2018-12-10T01:32:11.520Z,2.50
2018-12-10T01:34:38.160Z,1.60
2018-12-10T01:37:04.797Z,1.57
2018-12-10T01:39:31.433Z,2.17
2018-12-10T01:41:58.041Z,1.80
2018-12-10T01:44:24.688Z,2.40
2018-12-10T01:46:51.300Z,2.00
2018-12-10T01:49:17.908Z,1.70
2018-12-10T01:51:44.537Z,1.80
2018-12-10T01:54:11.169Z,1.90
2018-12-10T01:56:37.808Z,1.90
2018-12-10T01:59:04.417Z,1.53
2018-12-10T02:01:31.044Z,2.27
2018-12-10T02:03:57.736Z,2.30
2018-12-10T02:06:24.470Z,2.37
2018-12-10T02:08:51.114Z,2.30
2018-12-10T02:11:17.723Z,2.43
2018-12-10T02:13:44.357Z,2.43
2018-12-10T02:16:11.023Z,3.07
2018-12-10T02:18:37.660Z,3.10
2018-12-10T02:21:04.326Z,2.63
2018-12-10T02:23:30.952Z,2.57
2018-12-10T02:25:57.577Z,2.57
2018-12-10T02:28:29.887Z,2.80
2018-12-10T02:30:56.588Z,2.33
2018-12-10T02:33:23.228Z,2.50
2018-12-10T02:35:49.828Z,2.20
2018-12-10T02:38:16.517Z,2.30
2018-12-10T02:40:43.129Z,2.20
2018-12-10T02:43:09.781Z,2.20
2018-12-10T02:45:36.528Z,2.20
2018-12-10T02:48:03.202Z,2.23
2018-12-10T02:50:29.910Z,2.13
2018-12-10T02:52:56.540Z,2.57
2018-12-10T02:55:23.190Z,1.90
2018-12-10T02:57:49.829Z,2.63
2018-12-10T03:00:16.469Z,3.03
2018-12-10T03:02:43.105Z,2.63
2018-12-10T03:05:09.741Z,2.90
2018-12-10T03:07:36.381Z,3.23
2018-12-10T03:10:03.669Z,2.43
2018-12-10T03:12:30.312Z,2.73
2018-12-10T03:14:57.092Z,3.00
2018-12-10T03:17:23.711Z,3.13
2018-12-10T03:19:50.345Z,3.57
2018-12-10T03:22:16.994Z,3.07
2018-12-10T03:24:43.645Z,2.80
2018-12-10T03:27:10.286Z,3.23
2018-12-10T03:29:36.898Z,2.77
2018-12-10T03:32:03.604Z,2.80
2018-12-10T03:34:30.339Z,2.77
2018-12-10T03:36:57.074Z,3.47
2018-12-10T03:39:23.708Z,2.70
2018-12-10T03:41:50.358Z,2.83
2018-12-10T03:44:16.984Z,2.60
2018-12-10T03:46:43.629Z,2.33
2018-12-10T03:49:10.328Z,2.83
2018-12-10T03:51:37.004Z,2.90
2018-12-10T03:54:03.640Z,3.07
2018-12-10T03:56:30.288Z,2.93
2018-12-10T03:58:56.937Z,2.90
2018-12-10T04:01:23.604Z,2.50
2018-12-10T04:03:50.305Z,2.30
2018-12-10T04:06:16.948Z,2.60
2018-12-10T04:08:43.584Z,3.27
2018-12-10T04:11:10.216Z,2.20
2018-12-10T04:13:36.864Z,2.73
2018-12-10T04:16:03.708Z,2.20
2018-12-10T04:18:30.324Z,2.53
2018-12-10T04:20:56.953Z,2.37
2018-12-10T04:23:23.592Z,2.93
2018-12-10T04:25:50.256Z,2.40
2018-12-10T04:28:18.053Z,2.77
2018-12-10T04:30:44.729Z,2.20
2018-12-10T04:33:11.511Z,2.67
2018-12-10T04:35:38.122Z,3.20
2018-12-10T04:38:04.757Z,2.80
2018-12-10T04:40:31.427Z,2.03
2018-12-10T04:42:58.061Z,2.53
2018-12-10T04:45:24.677Z,2.50
2018-12-10T04:47:51.341Z,2.80
2018-12-10T04:50:17.981Z,2.73
2018-12-10T04:52:44.616Z,2.30
2018-12-10T04:55:11.262Z,2.47
2018-12-10T04:57:37.892Z,2.13
2018-12-10T05:00:05.357Z,2.43
2018-12-10T05:02:31.966Z,2.40
2018-12-10T05:04:58.628Z,1.93
2018-12-10T05:07:25.271Z,1.87
2018-12-10T05:09:51.913Z,1.93
2018-12-10T05:12:18.546Z,2.03
2018-12-10T05:14:45.151Z,2.47
2018-12-10T05:17:11.833Z,2.17
2018-12-10T05:19:38.468Z,2.50
2018-12-10T05:22:05.156Z,2.13
2018-12-10T05:24:31.852Z,1.87
2018-12-10T05:26:58.486Z,1.80
2018-12-10T05:29:25.122Z,2.10
2018-12-10T05:31:51.720Z,2.70
2018-12-10T05:34:18.353Z,1.53
2018-12-10T05:36:44.957Z,2.03
2018-12-10T05:39:11.595Z,1.80
2018-12-10T05:41:38.222Z,1.77
2018-12-10T05:44:04.863Z,2.10
2018-12-10T05:46:31.500Z,1.67
2018-12-10T05:48:58.140Z,1.97
2018-12-10T05:51:24.828Z,1.47
2018-12-10T05:53:51.454Z,2.17
2018-12-10T05:56:18.245Z,1.87
2018-12-10T05:58:44.897Z,2.20
2018-12-10T06:01:11.528Z,1.50
2018-12-10T06:03:38.173Z,1.70
2018-12-10T06:06:04.800Z,2.27
2018-12-10T06:08:31.429Z,1.60
2018-12-10T06:10:58.037Z,2.07
2018-12-10T06:13:24.660Z,1.83
2018-12-10T06:15:51.273Z,1.80
2018-12-10T06:18:17.900Z,2.30
2018-12-10T06:20:44.540Z,2.50
2018-12-10T06:23:11.178Z,1.80
2018-12-10T06:25:37.817Z,2.43
2018-12-10T06:28:04.492Z,2.13
2018-12-10T06:30:31.134Z,2.20
2018-12-10T06:32:57.740Z,3.07
2018-12-10T06:35:24.385Z,2.27
2018-12-10T06:37:51.115Z,1.77
2018-12-10T06:40:17.758Z,2.27
2018-12-10T06:42:44.492Z,2.10
2018-12-10T06:45:11.137Z,1.77
2018-12-10T06:47:37.772Z,1.80
2018-12-10T06:50:05.237Z,1.80
2018-12-10T06:52:31.876Z,1.70
2018-12-10T06:54:58.512Z,1.70
2018-12-10T06:57:25.188Z,1.80
2018-12-10T06:59:51.891Z,1.77
2018-12-10T07:02:18.528Z,1.87
2018-12-10T07:04:45.173Z,1.80
2018-12-10T07:07:11.804Z,2.47
2018-12-10T07:12:11.486Z,2.80
2018-12-10T07:14:38.177Z,2.10
2018-12-10T07:17:04.809Z,2.13
2018-12-10T07:19:31.453Z,1.77
2018-12-10T07:21:58.092Z,2.10
2018-12-10T07:24:24.731Z,1.90
2018-12-10T07:26:51.334Z,2.50
2018-12-10T07:29:18.008Z,2.10
2018-12-10T07:31:44.613Z,2.20
2018-12-10T07:34:11.284Z,2.00
2018-12-10T07:36:37.917Z,2.50
2018-12-10T07:39:05.006Z,1.67
2018-12-10T07:41:31.716Z,1.63
2018-12-10T07:43:58.353Z,2.97
2018-12-10T07:46:24.983Z,2.37
2018-12-10T07:48:51.634Z,2.60
2018-12-10T07:51:18.258Z,2.00
2018-12-10T07:53:44.861Z,2.40
2018-12-10T07:56:11.522Z,1.93
2018-12-10T07:58:38.188Z,2.30
2018-12-10T08:01:04.871Z,2.67
2018-12-10T08:03:31.480Z,2.10
2018-12-10T08:05:58.112Z,2.20
2018-12-10T08:08:24.745Z,2.50
2018-12-10T08:10:51.384Z,2.73
2018-12-10T08:13:18.124Z,2.47
2018-12-10T08:15:44.766Z,2.80
2018-12-10T08:18:11.381Z,2.90
2018-12-10T08:20:38.013Z,3.23
2018-12-10T08:23:04.660Z,2.10
2018-12-10T08:25:31.350Z,2.60
2018-12-10T08:27:57.988Z,2.50
2018-12-10T08:30:24.597Z,2.43
2018-12-10T08:32:51.237Z,2.50
2018-12-10T08:35:17.876Z,2.90
2018-12-10T08:37:44.612Z,2.50
2018-12-10T08:40:11.230Z,2.50
2018-12-10T08:42:37.865Z,3.03
2018-12-10T08:45:04.736Z,2.80
2018-12-10T08:47:31.380Z,2.60
2018-12-10T08:49:57.987Z,2.67
2018-12-10T08:52:24.655Z,2.77
2018-12-10T08:54:51.260Z,3.00
2018-12-10T08:57:17.971Z,3.20
2018-12-10T08:59:44.673Z,2.87
2018-12-10T09:02:11.316Z,3.07
2018-12-10T09:04:37.929Z,3.10
2018-12-10T09:07:04.593Z,2.90
2018-12-10T09:09:31.241Z,2.83
2018-12-10T09:11:57.878Z,3.50
2018-12-10T09:14:24.481Z,3.70
2018-12-10T09:16:51.140Z,2.90
2018-12-10T09:19:17.780Z,2.47
2018-12-10T09:21:44.420Z,3.20
2018-12-10T09:24:11.065Z,3.20
2018-12-10T09:26:37.667Z,3.00
2018-12-10T09:29:04.275Z,2.60
2018-12-10T09:31:30.980Z,3.47
2018-12-10T09:33:57.592Z,2.83
2018-12-10T09:36:24.256Z,2.57
2018-12-10T09:38:50.889Z,2.57
2018-12-10T09:41:17.536Z,3.10
2018-12-10T09:43:44.171Z,3.50
2018-12-10T09:46:10.816Z,3.17
2018-12-10T09:48:37.458Z,2.50
2018-12-10T09:51:04.132Z,3.20
2018-12-10T09:53:30.743Z,3.27
2018-12-10T09:55:57.386Z,2.90
2018-12-10T09:58:24.104Z,3.57
2018-12-10T10:00:50.714Z,3.10
2018-12-10T10:03:17.349Z,2.63
2018-12-10T10:08:17.186Z,3.20
2018-12-10T10:10:43.797Z,2.83
2018-12-10T10:13:10.493Z,2.63
2018-12-10T10:15:37.138Z,2.57
2018-12-10T10:18:03.834Z,2.57
2018-12-10T10:20:30.442Z,2.43
2018-12-10T10:22:57.045Z,2.67
2018-12-10T10:25:23.790Z,2.47
2018-12-10T10:27:50.401Z,2.90
2018-12-10T10:30:17.020Z,2.33
2018-12-10T10:32:43.711Z,2.57
2018-12-10T10:35:10.316Z,2.37
2018-12-10T10:37:36.953Z,2.60
2018-12-10T10:40:04.690Z,2.90
2018-12-10T10:42:31.581Z,2.40
2018-12-10T10:44:58.236Z,2.47
2018-12-10T10:47:24.880Z,2.37
2018-12-10T10:49:51.484Z,3.37
2018-12-10T10:52:18.123Z,2.10
2018-12-10T10:54:44.790Z,2.70
2018-12-10T10:57:11.430Z,2.00
2018-12-10T10:59:38.168Z,2.10
2018-12-10T11:02:06.989Z,1.83
2018-12-10T11:04:37.510Z,2.00
2018-12-10T11:07:02.289Z,1.93
2018-12-10T11:09:28.917Z,2.07
2018-12-10T11:11:55.528Z,1.70
2018-12-10T11:14:22.173Z,1.80
2018-12-10T11:16:48.777Z,1.83
2018-12-10T11:19:15.409Z,1.63
2018-12-10T11:21:42.018Z,2.03
2018-12-10T11:24:08.692Z,1.80
2018-12-10T11:26:35.296Z,1.70
2018-12-10T11:29:02.140Z,2.37
2018-12-10T11:31:28.746Z,1.70
2018-12-10T11:33:55.425Z,2.00
2018-12-10T11:36:22.060Z,1.80
2018-12-10T11:38:48.670Z,2.23
2018-12-10T11:41:15.308Z,2.07
2018-12-10T11:43:41.972Z,2.17
2018-12-10T11:46:08.617Z,1.70
2018-12-10T11:48:35.230Z,2.80
2018-12-10T11:51:02.507Z,2.30
2018-12-10T11:53:29.185Z,2.70
2018-12-10T11:55:55.888Z,3.30
2018-12-10T11:58:22.606Z,2.60
2018-12-10T12:00:49.272Z,2.97
2018-12-10T12:03:15.884Z,3.13
2018-12-10T12:05:42.500Z,5.23
2018-12-10T12:08:09.107Z,4.00
2018-12-10T12:10:35.734Z,3.30
2018-12-10T12:13:02.456Z,2.83
2018-12-10T12:15:29.099Z,3.20
2018-12-10T12:17:55.700Z,3.57
2018-12-10T12:20:22.347Z,3.20
2018-12-10T12:22:49.040Z,3.23
2018-12-10T12:25:15.689Z,3.27
2018-12-10T12:27:42.304Z,3.37
2018-12-10T12:30:08.985Z,3.10
2018-12-10T12:32:35.595Z,3.17
2018-12-10T12:35:02.228Z,3.07
2018-12-10T12:37:28.863Z,2.80
2018-12-10T12:39:55.492Z,3.50
2018-12-10T12:42:22.105Z,2.90
2018-12-10T12:44:48.745Z,3.03
2018-12-10T12:47:15.612Z,3.70
2018-12-10T12:49:42.228Z,3.40
2018-12-10T12:52:08.832Z,3.33
2018-12-10T12:54:35.474Z,3.57
2018-12-10T12:57:02.108Z,2.80
2018-12-10T12:59:28.733Z,3.57
2018-12-10T13:01:55.681Z,3.67
2018-12-10T13:04:22.727Z,3.50
2018-12-10T13:06:49.405Z,2.80
2018-12-10T13:09:21.789Z,2.97
2018-12-10T13:11:45.035Z,3.47
2018-12-10T13:14:11.895Z,3.50
2018-12-10T13:16:38.631Z,3.57
2018-12-10T13:19:05.301Z,3.57
2018-12-10T13:21:31.944Z,3.53
2018-12-10T13:23:58.557Z,3.37
2018-12-10T13:26:25.327Z,2.90
2018-12-10T13:28:52.255Z,2.80
2018-12-10T13:31:19.137Z,2.80
2018-12-10T13:33:45.863Z,3.00
2018-12-10T13:36:12.554Z,3.23
2018-12-10T13:38:39.326Z,3.57
2018-12-10T13:41:06.140Z,3.10
2018-12-10T13:43:33.048Z,3.10
2018-12-10T13:45:59.739Z,2.90
2018-12-10T13:48:26.413Z,3.67
2018-12-10T13:50:53.157Z,3.83
2018-12-10T13:53:19.775Z,3.20
2018-12-10T13:55:46.429Z,3.37
2018-12-10T13:58:13.032Z,4.10
2018-12-10T14:00:39.668Z,3.70
2018-12-10T14:03:06.728Z,3.40
2018-12-10T14:05:33.335Z,3.00
2018-12-10T14:07:59.960Z,4.27
2018-12-10T14:10:26.641Z,3.50
2018-12-10T14:12:53.301Z,3.30
2018-12-10T14:15:19.909Z,3.93
2018-12-10T14:17:46.537Z,3.50
2018-12-10T14:20:13.188Z,3.27
2018-12-10T14:22:39.856Z,4.07
2018-12-10T14:25:06.539Z,3.73
2018-12-10T14:27:33.196Z,3.37
2018-12-10T14:29:59.877Z,3.33
2018-12-10T14:32:26.480Z,3.87
2018-12-10T14:34:53.153Z,4.00
2018-12-10T14:37:19.761Z,3.63
2018-12-10T14:39:46.392Z,3.80
2018-12-10T14:42:17.931Z,3.87
2018-12-10T14:44:44.624Z,3.57
2018-12-10T14:47:11.374Z,3.00
2018-12-10T14:49:38.009Z,3.83
2018-12-10T14:52:04.638Z,4.30
2018-12-10T14:54:31.284Z,3.90
2018-12-10T14:56:57.924Z,3.57
2018-12-10T14:59:24.556Z,4.07
2018-12-10T15:01:51.192Z,4.00
2018-12-10T15:04:17.821Z,4.10
2018-12-10T15:06:44.437Z,4.00
2018-12-10T15:09:11.114Z,4.30
2018-12-10T15:11:37.754Z,4.30
2018-12-10T15:14:04.389Z,4.37
2018-12-10T15:16:31.034Z,4.00
2018-12-10T15:18:57.669Z,3.43
2018-12-10T15:21:24.419Z,2.87
2018-12-10T15:23:51.050Z,2.70
2018-12-10T15:26:17.669Z,3.13
2018-12-10T15:28:44.302Z,2.60
2018-12-10T15:31:10.927Z,2.80
2018-12-10T15:33:37.611Z,2.80
2018-12-10T15:38:37.337Z,2.30
2018-12-10T15:41:03.959Z,1.63
2018-12-10T15:43:30.565Z,2.30
2018-12-10T15:45:57.257Z,2.10
2018-12-10T15:48:23.860Z,2.50
2018-12-10T15:50:50.493Z,2.00
2018-12-10T15:53:17.173Z,2.03
2018-12-10T15:55:43.821Z,2.17
2018-12-10T15:58:10.433Z,2.60
2018-12-10T16:00:37.044Z,2.30
2018-12-10T16:03:04.128Z,2.83
2018-12-10T16:05:30.768Z,2.57
2018-12-10T16:07:57.414Z,2.20
2018-12-10T16:10:24.053Z,2.40
2018-12-10T16:12:50.688Z,2.53
2018-12-10T16:15:17.331Z,2.30
2018-12-10T16:17:43.965Z,2.10
2018-12-10T16:20:10.613Z,3.07
2018-12-10T16:22:37.240Z,3.43
2018-12-10T16:25:04.016Z,3.63
2018-12-10T16:27:31.196Z,3.70
2018-12-10T16:29:57.879Z,3.83
2018-12-10T16:32:24.509Z,3.73
2018-12-10T16:34:51.531Z,4.67
2018-12-10T16:37:18.238Z,4.00
2018-12-10T16:39:44.948Z,4.80
2018-12-10T16:42:11.595Z,4.60
2018-12-10T16:44:38.225Z,5.10
2018-12-10T16:47:04.885Z,5.40
2018-12-10T16:49:31.522Z,4.90
2018-12-10T16:51:58.161Z,5.10
2018-12-10T16:54:24.800Z,6.53
2018-12-10T16:56:51.424Z,5.37
2018-12-10T16:59:18.058Z,5.87
2018-12-10T17:01:44.706Z,4.80
2018-12-10T17:04:11.333Z,5.93
2018-12-10T17:06:37.947Z,5.10
2018-12-10T17:09:06.372Z,6.10
2018-12-10T17:11:33.163Z,6.00
2018-12-10T17:13:59.799Z,6.80
2018-12-10T17:16:26.610Z,5.40
2018-12-10T17:18:53.323Z,5.37
2018-12-10T17:21:19.964Z,5.90
2018-12-10T17:23:46.610Z,5.63
2018-12-10T17:26:13.236Z,5.40
2018-12-10T17:28:39.981Z,5.90
2018-12-10T17:31:06.592Z,6.20
2018-12-10T17:33:33.229Z,5.53
2018-12-10T17:35:59.849Z,6.60
2018-12-10T17:38:26.576Z,5.00
2018-12-10T17:40:53.262Z,6.20
2018-12-10T17:43:19.876Z,5.30
2018-12-10T17:45:46.485Z,5.43
2018-12-10T17:48:13.113Z,5.70
2018-12-10T17:50:39.833Z,5.83
2018-12-10T17:53:06.449Z,6.07
2018-12-10T17:55:33.113Z,6.60
2018-12-10T17:57:59.748Z,6.83
2018-12-10T18:00:26.365Z,5.87
2018-12-10T18:02:53.132Z,6.80
2018-12-10T18:05:19.773Z,8.00
2018-12-10T18:07:46.437Z,5.50
2018-12-10T18:10:13.144Z,5.20
2018-12-10T18:12:39.792Z,5.03
2018-12-10T18:15:06.528Z,5.90
2018-12-10T18:17:33.141Z,5.40
2018-12-10T18:19:59.953Z,5.80
2018-12-10T18:22:26.615Z,5.07
2018-12-10T18:24:53.232Z,4.50
2018-12-10T18:27:19.872Z,5.00
2018-12-10T18:29:46.488Z,5.77
2018-12-10T18:32:13.208Z,4.93
2018-12-10T18:34:40.414Z,6.07
2018-12-10T18:37:07.435Z,4.83
2018-12-10T18:39:34.149Z,5.20
2018-12-10T18:42:00.753Z,4.67
2018-12-10T18:44:27.413Z,4.57
2018-12-10T18:46:54.018Z,4.90
2018-12-10T18:49:20.705Z,5.10
2018-12-10T18:51:47.430Z,4.07
2018-12-10T18:54:14.033Z,3.90
2018-12-10T18:56:40.725Z,3.50
2018-12-10T18:59:07.357Z,3.70
2018-12-10T19:01:33.996Z,3.90
2018-12-10T19:04:00.613Z,3.63
2018-12-10T19:06:27.283Z,4.20
2018-12-10T19:08:54.167Z,3.20
2018-12-10T19:11:20.826Z,4.33
2018-12-10T19:13:49.995Z,3.70
2018-12-10T19:16:16.057Z,3.40
2018-12-10T19:18:42.724Z,4.27
2018-12-10T19:21:09.356Z,4.57
2018-12-10T19:23:35.998Z,3.83
2018-12-10T19:26:02.637Z,4.10
2018-12-10T19:28:29.280Z,4.90
2018-12-10T19:30:55.928Z,5.00
2018-12-10T19:33:22.556Z,4.10
2018-12-10T19:35:49.197Z,5.10
2018-12-10T19:38:15.916Z,5.40
2018-12-10T19:40:42.582Z,4.90
2018-12-10T19:43:09.329Z,4.93
2018-12-10T19:45:35.969Z,5.20
2018-12-10T19:48:02.685Z,5.20
2018-12-10T19:50:29.342Z,5.03
2018-12-10T19:52:56.046Z,6.00
2018-12-10T19:55:22.653Z,5.10
2018-12-10T19:57:49.305Z,5.20
2018-12-10T20:00:16.101Z,4.77
2018-12-10T20:02:42.740Z,4.97
2018-12-10T20:05:09.419Z,4.87
2018-12-10T20:07:36.057Z,5.33
2018-12-10T20:10:03.146Z,5.10
2018-12-10T20:12:29.760Z,5.27
2018-12-10T20:14:56.392Z,5.33
2018-12-10T20:17:23.084Z,5.77
2018-12-10T20:19:49.728Z,4.73
2018-12-10T20:22:16.336Z,4.73
2018-12-10T20:24:42.973Z,6.60
2018-12-10T20:27:09.702Z,5.57
2018-12-10T20:29:36.388Z,5.20
2018-12-10T20:32:03.075Z,5.70
2018-12-10T20:34:29.821Z,4.70
2018-12-10T20:36:56.510Z,6.00
2018-12-10T20:39:23.156Z,4.90
2018-12-10T20:41:49.787Z,5.73
2018-12-10T20:44:16.394Z,4.20
2018-12-10T20:46:43.072Z,4.70
2018-12-10T20:49:09.688Z,5.20
2018-12-10T20:51:36.344Z,4.10
2018-12-10T20:54:03.091Z,5.10
2018-12-10T20:56:29.722Z,4.60
2018-12-10T20:58:56.340Z,3.93
2018-12-10T21:01:22.990Z,4.37
2018-12-10T21:03:49.633Z,4.57
2018-12-10T21:06:22.205Z,4.23
2018-12-10T21:08:48.849Z,4.20
2018-12-10T21:11:15.485Z,3.93
2018-12-10T21:13:42.119Z,4.33
2018-12-10T21:16:09.585Z,3.97
2018-12-10T21:18:36.218Z,3.90
2018-12-10T21:21:02.969Z,4.20
2018-12-10T21:23:29.604Z,3.77
2018-12-10T21:25:56.218Z,3.90
2018-12-10T21:28:22.848Z,4.73
2018-12-10T21:30:49.463Z,3.80
2018-12-10T21:33:16.093Z,4.67
2018-12-10T21:35:43.292Z,4.37
2018-12-10T21:38:10.053Z,4.13
2018-12-10T21:40:36.689Z,3.80
2018-12-10T21:43:03.305Z,4.13
2018-12-10T21:45:29.973Z,4.70
2018-12-10T21:47:56.636Z,4.70
2018-12-10T21:50:23.353Z,4.17
2018-12-10T21:52:50.003Z,4.50
2018-12-10T21:55:17.053Z,4.00
2018-12-10T21:57:43.760Z,3.77
2018-12-10T22:00:10.397Z,3.77
2018-12-10T22:02:37.165Z,4.50
2018-12-10T22:05:04.567Z,4.17
2018-12-10T22:07:31.248Z,3.73
2018-12-10T22:09:57.878Z,4.00
2018-12-10T22:12:24.485Z,4.40
2018-12-10T22:14:51.123Z,4.23
2018-12-10T22:17:17.736Z,4.60
2018-12-10T22:19:44.552Z,4.50
2018-12-10T22:22:11.195Z,4.30
2018-12-10T22:24:37.805Z,3.60
2018-12-10T22:27:04.474Z,4.07
2018-12-10T22:29:31.213Z,4.40
2018-12-10T22:31:58.187Z,4.37
2018-12-10T22:34:24.993Z,4.37
2018-12-10T22:36:51.638Z,4.20
2018-12-10T22:39:18.281Z,4.10
2018-12-10T22:41:44.915Z,4.87
2018-12-10T22:44:11.567Z,4.23
2018-12-10T22:46:38.196Z,3.70
2018-12-10T22:49:04.932Z,4.10
2018-12-10T22:51:31.537Z,3.50
2018-12-10T22:53:58.228Z,4.20
2018-12-10T22:56:24.856Z,4.10
2018-12-10T22:58:51.496Z,3.80
2018-12-10T23:01:18.129Z,4.70
2018-12-10T23:03:44.740Z,4.30
2018-12-10T23:06:11.384Z,3.40
2018-12-10T23:08:37.991Z,3.27
2018-12-10T23:11:04.695Z,3.57
2018-12-10T23:13:31.335Z,3.60
2018-12-10T23:15:58.064Z,3.50
2018-12-10T23:18:24.768Z,3.20
2018-12-10T23:20:51.393Z,3.40
2018-12-10T23:23:18.081Z,3.50
2018-12-10T23:25:44.738Z,4.33
2018-12-10T23:28:12.507Z,4.03
2018-12-10T23:30:39.228Z,3.27
2018-12-10T23:33:05.863Z,3.70
2018-12-10T23:35:32.508Z,3.43
2018-12-10T23:37:59.146Z,4.37
2018-12-10T23:40:25.760Z,3.53
2018-12-10T23:42:58.228Z,3.43
2018-12-10T23:45:24.905Z,3.17
2018-12-10T23:47:51.640Z,4.00
2018-12-10T23:50:18.456Z,3.60
2018-12-10T23:52:45.133Z,3.50
2018-12-10T23:55:11.772Z,3.57
2018-12-10T23:57:38.410Z,3.83
